Flight Track Log - Related Links

Times and Time Zones

All times are in EST time to prevent confusion due to time zone crossing. See the N789EX flight status page for this flight to view local times or setup timezone preferences in your user account.

Time Position Orientation Groundspeed Altitude Reporting Facility
EST Latitude Longitude Course Direction KTS MPH feet Rate Location/Type
Sat 02:57:27 PM 47.5076 -122.2830 147° Southeast 180 207 1,000  Level FlightAware ADS-B
Sat 02:57:40 PM 47.4981 -122.2730 145° Southeast 196 226 1,400 1,333 Climbing FlightAware ADS-B
Sat 02:57:54 PM 47.4878 -122.2620 144° Southeast 219 252 1,600 1,043 Climbing FlightAware ADS-B
Sat 02:58:03 PM 47.4799 -122.2530 142° Southeast 234 269 1,800 2,000 Climbing FlightAware ADS-B
Sat 02:58:18 PM 47.4656 -122.2390 146° Southeast 249 287 2,400 2,667 Climbing FlightAware ADS-B
Sat 02:58:30 PM 47.4538 -122.2270 145° Southeast 254 292 3,000 3,000 Climbing FlightAware ADS-B
Sat 02:58:34 PM 47.4506 -122.2230 140° Southeast 255 293 3,200 3,000 Climbing FlightAware ADS-B
Sat 02:58:38 PM 47.4470 -122.2190 143° Southeast 258 297 3,400 2,571 Climbing FlightAware ADS-B
Sat 02:58:41 PM 47.4446 -122.2150 132° Southeast 260 299 3,500 2,571 Climbing FlightAware ADS-B
Sat 02:58:45 PM 47.4417 -122.2090 126° Southeast 264 304 3,700 3,429 Climbing FlightAware ADS-B
Sat 02:58:48 PM 47.4400 -122.2040 117° Southeast 267 307 3,900 3,429 Climbing FlightAware ADS-B
Sat 02:58:52 PM 47.4383 -122.1970 110° East 269 310 4,100 3,429 Climbing FlightAware ADS-B
Sat 02:58:55 PM 47.4373 -122.1920 106° East 271 312 4,300 4,286 Climbing FlightAware ADS-B
Sat 02:58:59 PM 47.4363 -122.1850 102° East 273 314 4,600 3,600 Climbing FlightAware ADS-B
Sat 02:59:05 PM 47.4352 -122.1730 98° East 276 318 4,900 2,800 Climbing FlightAware ADS-B
Sat 02:59:14 PM 47.4342 -122.1570 95° East 281 323 5,300 3,130 Climbing FlightAware ADS-B
Sat 02:59:28 PM 47.4334 -122.1300 92° East 284 327 6,100 3,111 Climbing FlightAware ADS-B
Sat 02:59:41 PM 47.4332 -122.1040 91° East 288 331 6,700 3,000 Climbing FlightAware ADS-B
Sat 02:59:56 PM 47.4331 -122.0740 90° East 293 337 7,500 2,786 Climbing FlightAware ADS-B
Sat 03:00:09 PM 47.4330 -122.0470 90° East 300 345 8,000 2,690 Climbing FlightAware ADS-B
Sat 03:00:25 PM 47.4328 -122.0160 91° East 303 349 8,800 2,903 Climbing FlightAware ADS-B
Sat 03:00:40 PM 47.4325 -121.9830 91° East 309 356 9,500 2,133 Climbing FlightAware ADS-B
Sat 03:01:10 PM 47.4317 -121.9180 91° East 337 388 10,400 1,400 Climbing FlightAware ADS-B
Sat 03:01:40 PM 47.4308 -121.8440 91° East 373 429 10,900 1,180 Climbing FlightAware ADS-B
Sat 03:02:11 PM 47.4301 -121.7630 91° East 405 466 11,600 1,377 Climbing FlightAware ADS-B
Sat 03:02:41 PM 47.4291 -121.6760 91° East 432 497 12,300 1,800 Climbing FlightAware ADS-B
Sat 03:03:11 PM 47.4277 -121.5860 91° East 445 512 13,400 2,300 Climbing FlightAware ADS-B
Sat 03:03:41 PM 47.4263 -121.4940 91° East 451 519 14,600 2,262 Climbing FlightAware ADS-B
Sat 03:04:12 PM 47.4249 -121.3990 91° East 459 528 15,700 1,967 Climbing FlightAware ADS-B
Sat 03:04:42 PM 47.4233 -121.3040 91° East 467 537 16,600 984 Climbing FlightAware ADS-B
Sat 03:05:13 PM 47.4216 -121.2080 91° East 463 533 16,700 -98 Climbing FlightAware ADS-B
Sat 03:05:43 PM 47.4198 -121.1120 92° East 468 539 16,500 -200 Descending FlightAware ADS-B
Sat 03:06:13 PM 47.4180 -121.0160 92° East 467 537 16,500  Level FlightAware ADS-B
Sat 03:06:44 PM 47.4160 -120.9180 92° East 465 535 16,500 115 Level FlightAware ADS-B
Sat 03:07:05 PM 47.4146 -120.8490 92° East 464 534 16,600 130 Climbing FlightAware ADS-B
Sat 03:07:30 PM 47.4103 -120.7730 95° East 465 535 16,600 -419 Level FlightAware ADS-B
Sat 03:07:48 PM 47.4041 -120.7160 99° East 461 531 16,300 -1,469 Descending FlightAware ADS-B
Sat 03:08:19 PM 47.3914 -120.6210 101° East 448 516 15,400 -2,262 Descending FlightAware ADS-B
Sat 03:08:49 PM 47.3794 -120.5310 101° East 446 513 14,000 -2,500 Descending FlightAware ADS-B
Sat 03:09:19 PM 47.3675 -120.4420 101° East 438 504 12,900 -765 Descending FlightAware ADS-B
Sat 03:10:31 PM 47.3406 -120.2442 101° East 434 499 12,700 -902 Descending Seattle Center
Sat 03:11:32 PM 47.3161 -120.0750 102° East 425 489 10,900 -1,377 Descending Seattle Center
Sat 03:12:33 PM 47.2944 -119.9103 101° East 413 475 9,900 -738 Descending Seattle Center
Sat 03:13:34 PM 47.2644 -119.7669 107° East 336 387 9,400 -1,230 Descending Seattle Center
Sat 03:14:35 PM 47.2219 -119.6644 121° Southeast 298 343 7,400 -2,033 Descending Seattle Center
Sat 03:15:35 PM 47.1828 -119.5717 122° Southeast 272 313 5,300 -2,033 Descending Seattle Center
Sat 03:16:36 PM 47.1353 -119.4969 133° Southeast 252 290 3,300 -1,131 Descending Seattle Center
Sat 03:17:37 PM 47.0925 -119.4128 127° Southeast 241 277 3,000 -148 Descending Seattle Center
Sat 03:18:38 PM 47.0736 -119.3261 108° East 222 255 3,000  Level Seattle Center
Sat 03:19:39 PM 47.0733 -119.2500 90° East 206 237 3,000 -98 Level Seattle Center
Sat 03:20:40 PM 47.1175 -119.2761 338° Northwest 185 213 2,800 -590 Descending Seattle Center
Sat 03:21:41 PM 47.1644 -119.2978 343° North 168 193 1,800 -787 Descending Seattle Center
Sat 03:22:42 PM 47.2056 -119.3167 343° North 160 184 1,200 -298 Descending Seattle Center
Sat 03:23:42 PM 47.2372 -119.3286 346° North 156 180 1,200  Level Seattle Center

Login

Don't have an account? Register now (free) for customized features, flight alerts, and more!